Time;durP1;ratioP1;P1;durP2;ratioP2;P2;SDS_P1;SDS_P2;PMS_P1;PMS_P2;Temp;Humidity;BMP_temperature;BMP_pressure;BME280_temperature;BME280_humidity;BME280_pressure;Samples;Min_cycle;Max_cycle;Signal;HPM_P1;HPM_P2
2022/05/02 00:02:23;;;;;;;1.57;1.40;;;10.20;99.90;;;;;;5052719;28;20549;-62
2022/05/02 00:04:50;;;;;;;1.20;1.20;;;10.20;99.90;;;;;;5048020;28;20293;-64
2022/05/02 00:07:17;;;;;;;1.30;1.30;;;10.20;99.90;;;;;;5049466;28;20222;-63
2022/05/02 00:09:44;;;;;;;1.50;1.40;;;10.20;99.90;;;;;;5045522;28;20300;-63
2022/05/02 00:12:12;;;;;;;1.60;1.50;;;10.20;99.90;;;;;;5050893;28;20682;-63
2022/05/02 00:14:39;;;;;;;1.60;1.50;;;10.10;99.90;;;;;;5052376;28;20235;-63
2022/05/02 00:19:34;;;;;;;1.37;1.37;;;10.10;99.90;;;;;;5035716;28;20223;-66
2022/05/02 00:22:00;;;;;;;1.70;1.40;;;10.10;99.90;;;;;;5029664;28;20288;-67
2022/05/02 00:24:28;;;;;;;1.40;1.40;;;10.10;99.90;;;;;;5026990;28;20678;-67
2022/05/02 00:26:54;;;;;;;1.40;1.40;;;10.10;99.90;;;;;;5026481;28;20216;-67
2022/05/02 00:29:24;;;;;;;1.38;1.38;;;10.10;99.90;;;;;;5027001;28;20292;-67
2022/05/02 00:31:51;;;;;;;1.60;1.50;;;10.20;99.90;;;;;;5030200;28;20244;-68
2022/05/02 00:34:18;;;;;;;1.20;1.20;;;10.10;99.90;;;;;;5032527;28;20213;-67
2022/05/02 00:36:45;;;;;;;1.37;1.33;;;10.00;99.90;;;;;;5031160;28;20634;-67
2022/05/02 00:39:11;;;;;;;1.30;1.30;;;10.10;99.90;;;;;;5026649;28;20240;-67
2022/05/02 00:41:38;;;;;;;1.52;1.50;;;10.00;99.90;;;;;;5028148;28;20197;-67
2022/05/02 00:44:06;;;;;;;1.50;1.50;;;10.00;99.90;;;;;;5029949;28;20725;-66
2022/05/02 00:46:37;;;;;;;1.60;1.60;;;9.90;99.90;;;;;;5021677;28;20320;-66
2022/05/02 00:49:03;;;;;;;1.40;1.40;;;9.90;99.90;;;;;;5015032;28;20198;-65
2022/05/02 00:51:30;;;;;;;1.42;1.42;;;9.90;99.90;;;;;;5015819;28;20218;-67
2022/05/02 00:53:57;;;;;;;1.50;1.50;;;9.90;99.90;;;;;;5020162;28;20296;-66
2022/05/02 00:56:24;;;;;;;1.70;1.60;;;9.90;99.90;;;;;;5017458;28;20311;-66
2022/05/02 00:58:51;;;;;;;1.53;1.53;;;9.90;99.90;;;;;;5021050;28;20295;-66
2022/05/02 01:01:19;;;;;;;1.30;1.30;;;9.90;99.90;;;;;;5020995;28;20300;-66
2022/05/02 01:03:47;;;;;;;1.60;1.50;;;9.90;99.90;;;;;;5014711;28;20209;-67
2022/05/02 01:08:58;;;;;;;1.55;1.52;;;9.80;99.90;;;;;;5025060;28;20210;-68
2022/05/02 01:11:25;;;;;;;1.40;1.40;;;9.70;99.90;;;;;;5018410;28;20279;-68
2022/05/02 01:13:52;;;;;;;1.50;1.50;;;9.70;99.90;;;;;;5033424;28;20216;-68
2022/05/02 01:16:22;;;;;;;1.50;1.40;;;9.70;99.90;;;;;;5035765;28;20245;-66
2022/05/02 01:18:51;;;;;;;1.50;1.50;;;9.60;99.90;;;;;;5019491;28;20248;-66
2022/05/02 01:21:21;;;;;;;1.60;1.50;;;9.60;99.90;;;;;;5014324;28;20483;-66
2022/05/02 01:23:50;;;;;;;1.58;1.50;;;9.70;99.90;;;;;;5017154;28;20291;-66
2022/05/02 01:26:17;;;;;;;1.30;1.30;;;9.60;99.90;;;;;;5014145;28;20317;-67
2022/05/02 01:28:46;;;;;;;1.40;1.40;;;9.60;99.90;;;;;;5012956;28;20614;-67
2022/05/02 01:31:14;;;;;;;1.52;1.52;;;9.60;99.90;;;;;;5014773;28;20205;-67
2022/05/02 01:33:42;;;;;;;1.50;1.50;;;9.60;99.90;;;;;;5012971;28;20950;-67
2022/05/02 01:36:09;;;;;;;1.73;1.63;;;9.60;99.90;;;;;;5012942;28;20223;-67
2022/05/02 01:38:38;;;;;;;1.33;1.33;;;9.60;99.90;;;;;;5011496;28;20720;-66
2022/05/02 01:41:06;;;;;;;1.53;1.47;;;9.60;99.90;;;;;;5013237;28;20660;-67
2022/05/02 01:43:33;;;;;;;1.50;1.40;;;9.50;99.90;;;;;;5013413;28;20667;-67
2022/05/02 01:46:00;;;;;;;1.53;1.53;;;9.50;99.90;;;;;;5015454;28;20954;-67
2022/05/02 01:48:27;;;;;;;1.60;1.60;;;9.50;99.90;;;;;;5016517;28;20737;-66
2022/05/02 01:50:54;;;;;;;1.43;1.43;;;9.50;99.90;;;;;;5012594;28;20300;-66
2022/05/02 01:53:22;;;;;;;1.40;1.40;;;9.50;99.90;;;;;;5013983;28;20197;-65
2022/05/02 01:55:50;;;;;;;1.40;1.40;;;9.40;99.90;;;;;;5013774;28;20296;-66
2022/05/02 01:58:17;;;;;;;1.52;1.50;;;9.40;99.90;;;;;;5008791;28;20237;-66
2022/05/02 02:00:45;;;;;;;1.73;1.63;;;9.30;99.90;;;;;;5015555;28;20292;-67
2022/05/02 02:03:12;;;;;;;1.63;1.53;;;9.40;99.90;;;;;;5012264;28;20215;-66
2022/05/02 02:05:50;;;;;;;1.50;1.50;;;9.40;99.90;;;;;;5020532;28;20308;-65
2022/05/02 02:08:19;;;;;;;1.43;1.43;;;9.30;99.90;;;;;;5029284;28;20665;-65
2022/05/02 02:10:47;;;;;;;1.70;1.60;;;9.30;99.90;;;;;;5029591;28;20228;-66
2022/05/02 02:13:16;;;;;;;1.50;1.50;;;9.20;99.90;;;;;;5030850;28;20269;-67
2022/05/02 02:15:43;;;;;;;1.90;1.80;;;9.20;99.90;;;;;;5026413;28;20196;-64
2022/05/02 02:18:10;;;;;;;1.70;1.60;;;9.20;99.90;;;;;;5028228;28;20212;-64
2022/05/02 02:20:37;;;;;;;2.00;1.90;;;9.20;99.90;;;;;;5030221;28;20287;-66
2022/05/02 02:23:04;;;;;;;1.98;1.88;;;9.10;99.90;;;;;;5030946;28;20232;-65
2022/05/02 02:25:32;;;;;;;1.48;1.48;;;9.20;99.90;;;;;;5025451;28;20303;-65
2022/05/02 02:28:00;;;;;;;1.50;1.50;;;9.10;99.90;;;;;;5030137;28;20642;-66
2022/05/02 02:30:28;;;;;;;1.70;1.60;;;9.10;99.90;;;;;;5029098;28;20645;-67
2022/05/02 02:32:55;;;;;;;1.80;1.70;;;9.10;99.90;;;;;;5029603;28;20212;-67
2022/05/02 02:35:22;;;;;;;1.80;1.70;;;9.10;99.90;;;;;;5030788;28;20232;-67
2022/05/02 02:37:49;;;;;;;1.60;1.60;;;9.10;99.90;;;;;;5027719;28;20252;-66
2022/05/02 02:40:17;;;;;;;1.80;1.70;;;9.10;99.90;;;;;;5032276;28;20236;-67
2022/05/02 02:42:44;;;;;;;1.63;1.60;;;9.10;99.90;;;;;;5033686;28;22119;-66
2022/05/02 02:45:11;;;;;;;1.50;1.50;;;9.10;99.90;;;;;;5024309;28;20205;-66
2022/05/02 02:47:40;;;;;;;1.80;1.70;;;9.10;99.90;;;;;;5025244;28;20217;-66
2022/05/02 02:50:07;;;;;;;1.60;1.58;;;9.10;99.90;;;;;;5033720;28;20209;-67
2022/05/02 02:52:34;;;;;;;1.58;1.52;;;9.20;99.90;;;;;;5034917;28;20243;-66
2022/05/02 02:55:01;;;;;;;1.33;1.33;;;9.20;99.90;;;;;;5031227;28;20292;-67
2022/05/02 02:57:28;;;;;;;1.40;1.40;;;9.20;99.90;;;;;;5022074;28;20306;-67
2022/05/02 02:59:54;;;;;;;1.60;1.60;;;9.20;99.90;;;;;;5028322;28;20211;-67
2022/05/02 03:02:22;;;;;;;1.40;1.40;;;9.20;99.90;;;;;;5034956;28;20243;-66
2022/05/02 03:07:35;;;;;;;1.70;1.60;;;9.20;99.90;;;;;;5033632;28;20239;-66
2022/05/02 03:10:02;;;;;;;1.60;1.50;;;9.20;99.90;;;;;;5033769;28;20204;-68
2022/05/02 03:12:29;;;;;;;1.60;1.60;;;9.20;99.90;;;;;;5034983;28;20235;-67
2022/05/02 03:14:56;;;;;;;1.70;1.60;;;9.20;99.90;;;;;;5038811;28;20219;-68
2022/05/02 03:17:22;;;;;;;1.50;1.50;;;9.20;99.90;;;;;;5049468;28;20229;-67
2022/05/02 03:19:51;;;;;;;1.60;1.50;;;9.20;99.90;;;;;;5046672;28;20193;-67
2022/05/02 03:22:18;;;;;;;1.65;1.55;;;9.20;99.90;;;;;;5040708;28;20208;-66
2022/05/02 03:24:45;;;;;;;1.48;1.48;;;9.20;99.90;;;;;;5032922;28;20201;-66
2022/05/02 03:27:12;;;;;;;1.70;1.65;;;9.30;99.90;;;;;;5032797;28;20228;-66
2022/05/02 03:29:39;;;;;;;1.50;1.50;;;9.30;99.90;;;;;;5031523;28;20216;-66
2022/05/02 03:32:06;;;;;;;1.77;1.67;;;9.20;99.90;;;;;;5033286;28;20299;-66
2022/05/02 03:34:33;;;;;;;1.40;1.40;;;9.10;99.90;;;;;;5033128;28;20235;-67
2022/05/02 03:37:02;;;;;;;1.50;1.50;;;9.10;99.90;;;;;;5032804;28;20309;-67
2022/05/02 03:39:29;;;;;;;1.70;1.60;;;9.10;99.90;;;;;;5031534;28;20219;-67
2022/05/02 03:41:56;;;;;;;1.40;1.40;;;9.00;99.90;;;;;;5032594;28;20208;-66
2022/05/02 03:44:23;;;;;;;1.40;1.40;;;9.00;99.90;;;;;;5032516;28;20208;-68
2022/05/02 03:46:50;;;;;;;1.43;1.43;;;9.10;99.90;;;;;;5030828;28;20231;-69
2022/05/02 03:49:17;;;;;;;1.47;1.47;;;9.10;99.90;;;;;;5031626;28;20645;-67
2022/05/02 03:51:44;;;;;;;1.60;1.50;;;9.10;99.90;;;;;;5032093;28;20738;-71
2022/05/02 03:54:12;;;;;;;1.40;1.40;;;9.10;99.90;;;;;;5034392;28;20278;-66
2022/05/02 03:56:39;;;;;;;1.60;1.50;;;9.10;99.90;;;;;;5036423;28;20217;-68
2022/05/02 03:59:05;;;;;;;1.70;1.60;;;9.10;99.90;;;;;;5021647;28;20236;-68
2022/05/02 04:01:36;;;;;;;1.60;1.50;;;9.10;99.90;;;;;;5031652;28;20207;-68
2022/05/02 04:04:03;;;;;;;1.40;1.40;;;9.10;99.90;;;;;;5032478;28;20235;-68
2022/05/02 04:06:30;;;;;;;1.50;1.50;;;9.00;99.90;;;;;;5032262;28;20313;-68
2022/05/02 04:08:57;;;;;;;1.70;1.60;;;9.00;99.90;;;;;;5031599;28;20231;-67
2022/05/02 04:11:25;;;;;;;1.80;1.70;;;9.00;99.90;;;;;;5035905;28;20247;-67
2022/05/02 04:13:52;;;;;;;1.63;1.52;;;8.90;99.90;;;;;;5036145;28;20276;-70
2022/05/02 04:16:19;;;;;;;1.40;1.40;;;8.90;99.90;;;;;;5032552;28;20217;-68
2022/05/02 04:18:46;;;;;;;1.75;1.65;;;8.90;99.90;;;;;;4987044;28;1111709;-65
2022/05/02 04:21:13;;;;;;;1.80;1.70;;;8.90;99.90;;;;;;5030420;28;20207;-66
2022/05/02 04:23:40;;;;;;;1.60;1.60;;;9.00;99.90;;;;;;5032799;28;20291;-67
2022/05/02 04:26:07;;;;;;;1.67;1.58;;;9.00;99.90;;;;;;5035238;28;20236;-68
2022/05/02 04:28:35;;;;;;;1.80;1.70;;;8.90;99.90;;;;;;5035883;28;20291;-68
2022/05/02 04:31:02;;;;;;;1.90;1.80;;;8.80;99.90;;;;;;5031223;28;20268;-70
2022/05/02 04:33:29;;;;;;;1.40;1.40;;;8.80;99.90;;;;;;5026750;28;20699;-68
2022/05/02 04:35:56;;;;;;;1.60;1.57;;;8.70;99.90;;;;;;5024855;28;20292;-70
2022/05/02 04:38:24;;;;;;;1.80;1.70;;;8.70;99.90;;;;;;5023375;28;20260;-69
2022/05/02 04:40:51;;;;;;;1.60;1.50;;;8.70;99.90;;;;;;5033720;28;20208;-67
2022/05/02 04:43:17;;;;;;;1.70;1.60;;;8.70;99.90;;;;;;5033124;28;20189;-68
2022/05/02 04:45:46;;;;;;;1.70;1.63;;;8.70;99.90;;;;;;5029919;28;20208;-69
2022/05/02 04:48:13;;;;;;;1.70;1.60;;;8.80;99.90;;;;;;5033230;28;20208;-73
2022/05/02 04:50:39;;;;;;;2.03;1.90;;;8.80;99.90;;;;;;5048689;28;20222;-67
2022/05/02 04:53:06;;;;;;;1.60;1.50;;;9.00;99.90;;;;;;5021181;28;20232;-66
2022/05/02 04:55:33;;;;;;;1.73;1.63;;;8.90;99.90;;;;;;5024542;28;20204;-68
2022/05/02 04:58:00;;;;;;;1.77;1.67;;;8.90;99.90;;;;;;5021442;28;20752;-67
2022/05/02 05:00:27;;;;;;;1.55;1.50;;;8.90;99.90;;;;;;5033780;28;20290;-68
2022/05/02 05:02:55;;;;;;;1.30;1.30;;;8.90;99.90;;;;;;5028658;28;20208;-68
2022/05/02 05:05:22;;;;;;;1.80;1.70;;;8.80;99.90;;;;;;5024280;28;20303;-68
2022/05/02 05:07:49;;;;;;;1.87;1.77;;;8.90;99.90;;;;;;5027785;28;20336;-67
2022/05/02 05:10:16;;;;;;;1.70;1.60;;;8.90;99.90;;;;;;5025782;28;20212;-68
2022/05/02 05:12:59;;;;;;;1.65;1.55;;;9.00;99.90;;;;;;5038685;28;20613;-67
2022/05/02 05:19:03;;;;;;;1.63;1.60;;;9.20;99.90;;;;;;5017110;28;20212;-66
2022/05/02 05:21:41;;;;;;;1.90;1.80;;;9.40;99.90;;;;;;5035220;28;20302;-69
2022/05/02 05:24:46;;;;;;;1.90;1.80;;;9.60;99.90;;;;;;5044165;28;20201;-66
2022/05/02 05:27:24;;;;;;;2.00;1.80;;;9.70;99.90;;;;;;5037419;28;20228;-66
2022/05/02 05:29:59;;;;;;;1.80;1.70;;;9.80;99.90;;;;;;5028613;28;20292;-67
2022/05/02 05:32:37;;;;;;;1.80;1.70;;;10.00;99.90;;;;;;5023799;28;20258;-66
2022/05/02 05:35:07;;;;;;;2.33;1.80;;;10.10;99.90;;;;;;5026572;28;20236;-69
2022/05/02 05:37:53;;;;;;;1.53;1.53;;;10.20;99.90;;;;;;5023090;28;20329;-68
2022/05/02 05:40:25;;;;;;;1.83;1.73;;;10.30;99.90;;;;;;5029638;28;20205;-66
2022/05/02 05:43:04;;;;;;;2.00;1.90;;;10.30;99.90;;;;;;5033115;28;20203;-67
2022/05/02 05:45:46;;;;;;;1.60;1.60;;;10.50;99.90;;;;;;5052483;28;20234;-67
2022/05/02 05:48:19;;;;;;;1.83;1.73;;;10.60;99.90;;;;;;5049745;28;20669;-69
2022/05/02 05:50:55;;;;;;;1.73;1.63;;;10.70;99.90;;;;;;5032168;28;20573;-66
2022/05/02 05:53:33;;;;;;;1.80;1.70;;;10.80;99.90;;;;;;5032539;28;20220;-67
2022/05/02 05:56:13;;;;;;;1.80;1.70;;;10.90;99.90;;;;;;5032364;28;20195;-67
2022/05/02 05:58:51;;;;;;;1.45;1.45;;;11.20;99.90;;;;;;5032461;28;20189;-67
2022/05/02 06:01:30;;;;;;;1.57;1.53;;;11.00;99.90;;;;;;5040159;28;20204;-66
2022/05/02 06:04:04;;;;;;;1.58;1.58;;;11.00;99.90;;;;;;5041995;28;20203;-67
2022/05/02 06:06:32;;;;;;;1.73;1.65;;;11.10;99.90;;;;;;5035938;28;20232;-66
2022/05/02 06:09:01;;;;;;;1.60;1.60;;;11.10;99.90;;;;;;5032621;28;20262;-67
2022/05/02 06:11:29;;;;;;;1.73;1.67;;;11.20;99.90;;;;;;5041051;28;20209;-67
2022/05/02 06:14:00;;;;;;;1.43;1.43;;;11.20;99.90;;;;;;5044240;28;20204;-67
2022/05/02 06:19:17;;;;;;;1.70;1.70;;;11.40;99.90;;;;;;5055222;28;20230;-60
2022/05/02 06:21:47;;;;;;;1.80;1.70;;;11.40;99.90;;;;;;5056111;28;20702;-62
2022/05/02 06:24:15;;;;;;;1.47;1.47;;;11.40;99.90;;;;;;5056152;28;20204;-63
2022/05/02 06:26:44;;;;;;;1.65;1.55;;;11.50;99.90;;;;;;5056144;28;20227;-60
2022/05/02 06:29:12;;;;;;;1.40;1.40;;;11.70;99.90;;;;;;5056237;28;20636;-62
2022/05/02 06:31:43;;;;;;;1.70;1.60;;;11.80;99.90;;;;;;5056207;28;20310;-61
2022/05/02 06:34:12;;;;;;;1.90;1.80;;;11.90;99.90;;;;;;5056140;28;20656;-61
2022/05/02 06:36:59;;;;;;;2.27;2.17;;;11.90;99.90;;;;;;5054267;28;20311;-61
2022/05/02 06:39:38;;;;;;;2.03;1.93;;;11.90;99.90;;;;;;5046159;28;20232;-60
2022/05/02 06:42:19;;;;;;;1.90;1.80;;;12.00;99.90;;;;;;5060659;28;20200;-61
2022/05/02 06:44:58;;;;;;;1.90;1.80;;;12.20;99.90;;;;;;5060435;28;20199;-62
2022/05/02 06:47:36;;;;;;;2.03;1.93;;;12.30;99.90;;;;;;5059099;28;20234;-61
2022/05/02 06:50:06;;;;;;;2.10;2.00;;;12.50;99.90;;;;;;5061408;28;20256;-63
2022/05/02 06:52:57;;;;;;;1.90;1.80;;;12.50;99.90;;;;;;5057195;28;20298;-62
2022/05/02 06:55:31;;;;;;;2.20;2.10;;;12.60;99.90;;;;;;5057293;28;20240;-61
2022/05/02 06:58:14;;;;;;;1.90;1.80;;;12.70;99.90;;;;;;5056115;28;20219;-61
2022/05/02 07:00:50;;;;;;;1.90;1.80;;;12.80;99.90;;;;;;5055657;28;20267;-62
2022/05/02 07:03:42;;;;;;;2.20;2.10;;;12.90;99.90;;;;;;5055363;28;20217;-62
2022/05/02 07:06:20;;;;;;;2.10;2.00;;;12.90;99.90;;;;;;5055022;28;20204;-61
2022/05/02 07:08:57;;;;;;;1.87;1.77;;;12.90;99.90;;;;;;5054513;28;20318;-62
2022/05/02 07:11:35;;;;;;;2.40;2.30;;;13.00;99.90;;;;;;5054818;28;20234;-62
2022/05/02 07:14:09;;;;;;;2.20;2.10;;;13.00;99.90;;;;;;5055187;28;20207;-62
2022/05/02 07:16:45;;;;;;;2.30;2.20;;;13.00;99.90;;;;;;5054992;28;20232;-62
2022/05/02 07:19:31;;;;;;;2.20;2.10;;;13.00;99.90;;;;;;5054315;28;20629;-62
2022/05/02 07:22:02;;;;;;;2.50;2.30;;;13.00;99.90;;;;;;5054549;28;20207;-62
2022/05/02 07:24:42;;;;;;;2.20;2.10;;;13.00;99.90;;;;;;5055570;28;20200;-62
2022/05/02 07:27:17;;;;;;;2.10;2.00;;;12.90;99.90;;;;;;5052670;28;20258;-63
2022/05/02 07:29:47;;;;;;;2.33;2.23;;;12.80;99.90;;;;;;5054285;28;20192;-62
2022/05/02 07:32:15;;;;;;;2.30;2.20;;;12.80;99.90;;;;;;5055062;28;20240;-63
2022/05/02 07:34:42;;;;;;;2.28;2.17;;;12.80;99.90;;;;;;5055047;28;20290;-62
2022/05/02 07:37:12;;;;;;;2.45;2.35;;;12.70;99.90;;;;;;5055226;28;20230;-62
2022/05/02 07:39:42;;;;;;;2.30;2.20;;;12.80;99.90;;;;;;5053764;28;20273;-63
2022/05/02 07:42:11;;;;;;;2.10;2.00;;;12.70;99.90;;;;;;5054743;28;20295;-62
2022/05/02 07:44:39;;;;;;;2.47;2.38;;;12.70;99.90;;;;;;5054838;28;20291;-62
2022/05/02 07:47:10;;;;;;;2.43;2.30;;;12.80;99.90;;;;;;5054793;28;20231;-62
2022/05/02 07:49:39;;;;;;;2.67;2.47;;;12.90;99.90;;;;;;5054160;28;20208;-62
2022/05/02 07:52:09;;;;;;;2.30;2.20;;;13.00;99.90;;;;;;5054721;28;20206;-62
2022/05/02 07:54:40;;;;;;;2.20;2.10;;;13.10;99.90;;;;;;5054553;28;20290;-62
2022/05/02 07:57:10;;;;;;;2.13;2.03;;;13.10;99.90;;;;;;5055083;28;20228;-65
2022/05/02 07:59:39;;;;;;;2.30;2.20;;;13.20;99.90;;;;;;5054338;28;20231;-61
2022/05/02 08:02:06;;;;;;;2.43;2.33;;;13.50;99.90;;;;;;5054062;28;20200;-61
2022/05/02 08:04:36;;;;;;;2.17;2.07;;;13.60;99.90;;;;;;5054091;28;20230;-62
2022/05/02 08:07:11;;;;;;;2.10;2.00;;;13.70;99.90;;;;;;5054552;28;20231;-61
2022/05/02 08:10:22;;;;;;;2.17;2.08;;;13.90;99.90;;;;;;5055544;28;20265;-61
2022/05/02 08:12:55;;;;;;;1.80;1.80;;;14.00;99.90;;;;;;5047404;28;20220;-62
2022/05/02 08:15:26;;;;;;;2.50;2.30;;;14.30;99.90;;;;;;5046289;28;20206;-62
2022/05/02 08:18:24;;;;;;;2.40;2.30;;;14.20;99.90;;;;;;5039289;28;20231;-62
2022/05/02 08:20:56;;;;;;;2.30;2.20;;;14.20;99.90;;;;;;5046347;28;20205;-62
2022/05/02 08:29:31;;;;;;;2.60;2.50;;;14.40;99.90;;;;;;5040332;28;20267;-62
2022/05/02 08:32:07;;;;;;;2.20;2.10;;;14.70;99.90;;;;;;5038155;28;20219;-63
2022/05/02 08:34:43;;;;;;;2.33;2.23;;;14.80;99.90;;;;;;5038607;28;20200;-61
2022/05/02 08:37:37;;;;;;;2.65;2.55;;;15.20;99.90;;;;;;5038026;28;20223;-62
2022/05/02 08:40:22;;;;;;;2.63;2.45;;;15.20;99.90;;;;;;5039461;28;20738;-64
2022/05/02 08:43:24;;;;;;;3.05;2.90;;;15.40;99.90;;;;;;5039856;28;20282;-63
2022/05/02 08:46:32;;;;;;;2.40;2.30;;;15.50;99.90;;;;;;5039316;28;20219;-62
2022/05/02 08:49:46;;;;;;;2.40;2.30;;;15.20;99.90;;;;;;5037939;28;20757;-61
2022/05/02 08:52:37;;;;;;;2.80;2.60;;;15.60;99.90;;;;;;5033668;28;20232;-61
2022/05/02 08:55:25;;;;;;;2.30;2.20;;;16.00;99.90;;;;;;5037955;28;20717;-61
2022/05/02 08:58:29;;;;;;;2.40;2.30;;;16.30;99.90;;;;;;5043657;28;20679;-61
2022/05/02 09:01:08;;;;;;;2.30;2.20;;;16.10;99.90;;;;;;5042694;28;20223;-62
2022/05/02 09:04:15;;;;;;;2.20;2.10;;;15.90;99.90;;;;;;5050563;28;20234;-62
2022/05/02 09:07:22;;;;;;;2.60;2.50;;;15.90;99.90;;;;;;5044907;28;20315;-62
2022/05/02 09:09:59;;;;;;;2.60;2.50;;;16.00;99.90;;;;;;5029686;28;20200;-63
2022/05/02 09:13:01;;;;;;;2.53;2.42;;;15.80;99.90;;;;;;5047558;28;20258;-61
2022/05/02 09:16:01;;;;;;;2.53;2.42;;;15.70;99.90;;;;;;5045975;28;20243;-61
2022/05/02 09:19:07;;;;;;;2.35;2.25;;;15.60;99.90;;;;;;5017989;28;20211;-61
2022/05/02 09:21:55;;;;;;;2.33;2.22;;;15.50;99.90;;;;;;5017165;28;20299;-62
2022/05/02 09:25:03;;;;;;;2.20;2.10;;;15.30;99.90;;;;;;5053488;28;20291;-62
2022/05/02 09:27:38;;;;;;;2.13;2.03;;;15.20;99.90;;;;;;5001095;28;20279;-63
2022/05/02 09:30:37;;;;;;;2.50;2.30;;;15.40;99.90;;;;;;5031606;28;20564;-62
2022/05/02 09:33:18;;;;;;;2.17;2.08;;;15.40;99.90;;;;;;5015541;28;20210;-63
2022/05/02 09:35:53;;;;;;;1.90;1.80;;;15.40;99.90;;;;;;5038150;28;20254;-64
2022/05/02 09:38:26;;;;;;;2.77;2.20;;;15.40;99.90;;;;;;5044511;28;20302;-63
2022/05/02 09:41:00;;;;;;;2.00;1.90;;;15.40;99.90;;;;;;5038146;28;20307;-62
2022/05/02 09:50:07;;;;;;;2.57;2.37;;;15.60;99.90;;;;;;5055534;28;20222;-61
2022/05/02 09:52:52;;;;;;;2.47;2.27;;;15.60;99.90;;;;;;5046764;28;20192;-61
2022/05/02 09:58:34;;;;;;;2.40;2.30;;;15.80;99.90;;;;;;5043618;28;20737;-61
2022/05/02 10:01:07;;;;;;;1.90;1.90;;;16.00;99.90;;;;;;5044842;28;20267;-60
2022/05/02 10:03:38;;;;;;;2.40;2.30;;;16.00;99.90;;;;;;5049415;28;20204;-62
2022/05/02 10:06:07;;;;;;;2.60;2.50;;;16.00;99.90;;;;;;5052799;28;20239;-61
2022/05/02 10:08:53;;;;;;;2.28;2.17;;;16.00;99.90;;;;;;5051127;28;20232;-60
2022/05/02 10:12:01;;;;;;;2.35;2.25;;;16.00;99.90;;;;;;5048294;28;20294;-61
2022/05/02 10:14:49;;;;;;;2.77;2.67;;;16.10;99.90;;;;;;5047695;28;20208;-61
2022/05/02 10:17:28;;;;;;;2.70;2.60;;;16.40;99.90;;;;;;5047941;28;20308;-63
2022/05/02 10:20:05;;;;;;;2.53;2.43;;;16.40;99.90;;;;;;5037634;28;20262;-62
2022/05/02 10:22:47;;;;;;;2.87;2.70;;;16.30;99.90;;;;;;5041480;28;20282;-63
2022/05/02 10:25:21;;;;;;;2.80;2.70;;;16.30;99.90;;;;;;5051274;28;20200;-62
2022/05/02 10:28:18;;;;;;;2.85;2.67;;;16.40;99.90;;;;;;5049532;28;20299;-62
2022/05/02 10:30:55;;;;;;;3.10;2.90;;;16.50;99.90;;;;;;5048313;28;20299;-62
2022/05/02 10:33:30;;;;;;;2.50;2.40;;;16.70;99.90;;;;;;5051426;28;20286;-63
2022/05/02 10:35:59;;;;;;;2.70;2.60;;;16.70;99.90;;;;;;5051390;28;20233;-63
2022/05/02 10:38:30;;;;;;;2.60;2.50;;;17.00;99.90;;;;;;5046636;28;20216;-63
2022/05/02 10:41:07;;;;;;;2.83;2.70;;;17.30;99.90;;;;;;5038089;28;20258;-64
2022/05/02 10:43:37;;;;;;;2.73;2.60;;;17.50;99.90;;;;;;5039492;28;20595;-63
2022/05/02 10:46:04;;;;;;;2.60;2.50;;;17.30;99.90;;;;;;5041213;28;20211;-63
2022/05/02 10:48:44;;;;;;;2.50;2.40;;;17.60;99.90;;;;;;5040489;28;20385;-63
2022/05/02 10:51:17;;;;;;;2.25;2.15;;;18.30;99.90;;;;;;5050568;28;20224;-62
2022/05/02 10:53:58;;;;;;;2.42;2.33;;;18.40;99.90;;;;;;5049460;28;20216;-63
2022/05/02 10:56:34;;;;;;;2.20;2.10;;;18.60;99.90;;;;;;5050374;28;20224;-67
2022/05/02 10:59:05;;;;;;;2.00;1.90;;;18.90;99.90;;;;;;5052230;28;20207;-62
2022/05/02 11:02:05;;;;;;;2.30;2.20;;;19.30;99.90;;;;;;5050933;28;20211;-62
2022/05/02 11:04:58;;;;;;;2.43;2.33;;;19.40;99.90;;;;;;5054018;28;20207;-63
2022/05/02 11:07:29;;;;;;;2.38;2.17;;;19.10;99.90;;;;;;5039084;28;20220;-64
2022/05/02 11:10:04;;;;;;;2.37;2.27;;;19.10;99.90;;;;;;5050238;28;20216;-64
2022/05/02 11:12:36;;;;;;;2.30;2.20;;;19.10;99.90;;;;;;5060826;28;20214;-61
2022/05/02 11:15:06;;;;;;;2.30;2.20;;;19.20;99.90;;;;;;5062588;28;20224;-63
2022/05/02 11:17:50;;;;;;;2.40;2.30;;;19.50;99.90;;;;;;5052715;28;20320;-62
2022/05/02 11:23:45;;;;;;;2.40;2.30;;;20.00;99.90;;;;;;5052181;28;20689;-63
2022/05/02 11:26:22;;;;;;;1.98;1.88;;;20.20;99.90;;;;;;5040980;28;20243;-61
2022/05/02 11:29:06;;;;;;;2.10;2.00;;;20.10;99.90;;;;;;5051258;28;20263;-63
2022/05/02 11:31:41;;;;;;;2.20;2.10;;;20.40;99.90;;;;;;5052888;28;20207;-63
2022/05/02 11:34:19;;;;;;;2.20;2.08;;;20.50;99.90;;;;;;5052621;28;20257;-64
2022/05/02 11:36:55;;;;;;;2.20;2.10;;;20.40;99.90;;;;;;5051892;28;20251;-64
2022/05/02 11:39:27;;;;;;;2.30;2.20;;;20.30;99.90;;;;;;5051626;28;20279;-64
2022/05/02 11:42:03;;;;;;;2.08;1.98;;;20.20;99.90;;;;;;5047324;28;20232;-63
2022/05/02 11:44:43;;;;;;;2.10;2.00;;;20.00;99.90;;;;;;5052787;28;20234;-63
2022/05/02 11:47:16;;;;;;;2.10;2.00;;;20.10;99.90;;;;;;5048797;28;20310;-62
2022/05/02 11:49:53;;;;;;;1.80;1.70;;;20.30;99.90;;;;;;5037749;28;20220;-64
2022/05/02 11:52:31;;;;;;;2.10;2.00;;;20.60;99.90;;;;;;5041878;28;20208;-65
2022/05/02 11:54:58;;;;;;;1.88;1.77;;;20.80;99.90;;;;;;5038723;28;20204;-63
2022/05/02 11:57:29;;;;;;;1.75;1.65;;;20.90;99.90;;;;;;5039754;28;20231;-62
2022/05/02 12:00:05;;;;;;;1.90;1.80;;;21.00;99.90;;;;;;5038426;28;20235;-64
2022/05/02 12:02:51;;;;;;;2.00;1.90;;;21.10;99.90;;;;;;5042254;28;20227;-64
2022/05/02 12:05:24;;;;;;;2.00;1.90;;;21.30;99.90;;;;;;5044805;28;20196;-61
2022/05/02 12:07:52;;;;;;;1.50;1.50;;;21.50;99.90;;;;;;5050177;28;20228;-61
2022/05/02 12:10:21;;;;;;;1.95;1.85;;;21.40;99.90;;;;;;5050112;28;20748;-62
2022/05/02 12:12:49;;;;;;;2.03;1.92;;;21.50;99.90;;;;;;5054190;28;20208;-61
2022/05/02 12:15:17;;;;;;;2.85;2.08;;;21.50;99.90;;;;;;5056042;28;20212;-62
2022/05/02 12:17:55;;;;;;;2.10;2.00;;;21.30;99.90;;;;;;5050758;28;20228;-62
2022/05/02 12:20:27;;;;;;;1.98;1.88;;;21.20;99.90;;;;;;5050146;28;20595;-63
2022/05/02 12:23:02;;;;;;;1.90;1.80;;;21.30;99.90;;;;;;5052990;28;20242;-62
2022/05/02 12:25:29;;;;;;;1.83;1.73;;;21.40;99.90;;;;;;5050620;28;20212;-62
2022/05/02 12:27:58;;;;;;;1.90;1.75;;;21.60;99.90;;;;;;5069028;22;20771;-64
2022/05/02 12:30:28;;;;;;;1.70;1.60;;;21.80;99.90;;;;;;5072048;28;20282;-65
2022/05/02 12:33:03;;;;;;;1.98;1.88;;;21.70;99.90;;;;;;5070527;28;20203;-65
2022/05/02 12:35:38;;;;;;;1.80;1.70;;;21.40;99.90;;;;;;5063965;28;20685;-63
2022/05/02 12:38:14;;;;;;;1.90;1.80;;;21.40;99.90;;;;;;5071801;28;20334;-65
2022/05/02 12:40:42;;;;;;;1.88;1.65;;;21.50;99.90;;;;;;5073464;28;20219;-64
2022/05/02 12:43:11;;;;;;;1.75;1.70;;;21.60;99.90;;;;;;5076105;28;20207;-64
2022/05/02 12:45:48;;;;;;;1.70;1.63;;;21.60;99.90;;;;;;5077118;28;20207;-64
2022/05/02 12:48:29;;;;;;;1.95;1.85;;;21.50;99.90;;;;;;5075223;28;20223;-65
2022/05/02 12:50:58;;;;;;;1.52;1.52;;;21.60;99.90;;;;;;5074213;28;20231;-65
2022/05/02 12:56:11;;;;;;;1.70;1.60;;;21.70;99.90;;;;;;5074387;28;20182;-63
2022/05/02 13:01:25;;;;;;;1.27;1.27;;;21.90;99.90;;;;;;5073287;28;20213;-64
2022/05/02 13:04:00;;;;;;;1.30;1.30;;;22.00;99.90;;;;;;5073399;28;20231;-65
2022/05/02 13:06:27;;;;;;;1.58;1.52;;;22.20;99.90;;;;;;5072607;28;20199;-67
2022/05/02 13:09:12;;;;;;;2.65;1.85;;;22.00;99.90;;;;;;5072587;28;20219;-66
2022/05/02 13:11:39;;;;;;;1.65;1.60;;;21.90;99.90;;;;;;5072865;28;20633;-65
2022/05/02 13:14:09;;;;;;;1.60;1.50;;;21.90;99.90;;;;;;5072861;28;20290;-66
2022/05/02 13:16:46;;;;;;;1.40;1.40;;;21.90;99.90;;;;;;5073509;28;20199;-66
2022/05/02 13:19:14;;;;;;;1.65;1.40;;;21.70;99.90;;;;;;5073182;28;20896;-65
2022/05/02 13:21:41;;;;;;;1.63;1.52;;;21.80;99.90;;;;;;5074429;28;20229;-64
2022/05/02 13:24:10;;;;;;;1.90;1.77;;;21.90;99.90;;;;;;5074524;28;20221;-65
2022/05/02 13:27:04;;;;;;;1.63;1.52;;;22.00;99.90;;;;;;5073413;28;20901;-64
2022/05/02 13:29:52;;;;;;;1.65;1.55;;;21.80;99.90;;;;;;5071659;28;20211;-67
2022/05/02 13:32:25;;;;;;;1.70;1.60;;;21.60;99.90;;;;;;5070042;28;20207;-66
2022/05/02 13:35:10;;;;;;;1.40;1.40;;;21.40;99.90;;;;;;5072762;28;20210;-64
2022/05/02 13:37:57;;;;;;;1.77;1.67;;;21.60;99.90;;;;;;5070992;28;20231;-66
2022/05/02 13:40:45;;;;;;;1.73;1.47;;;21.60;99.90;;;;;;5071474;28;20908;-66
2022/05/02 13:43:15;;;;;;;1.73;1.63;;;21.70;99.90;;;;;;5072887;28;20668;-65
2022/05/02 13:45:51;;;;;;;1.65;1.55;;;22.00;99.90;;;;;;5072669;28;20233;-64
2022/05/02 13:48:38;;;;;;;1.42;1.42;;;21.90;99.90;;;;;;5071705;28;20747;-66
2022/05/02 13:51:12;;;;;;;1.70;1.63;;;21.90;99.90;;;;;;5056054;28;20192;-64
2022/05/02 13:53:48;;;;;;;1.50;1.40;;;21.80;99.90;;;;;;5053987;28;20206;-64
2022/05/02 13:56:36;;;;;;;1.40;1.40;;;21.70;99.90;;;;;;5058995;28;20215;-66
2022/05/02 13:59:05;;;;;;;1.45;1.40;;;21.80;99.90;;;;;;5075590;28;20219;-64
2022/05/02 14:01:45;;;;;;;1.40;1.40;;;21.80;99.90;;;;;;5077170;28;20274;-64
2022/05/02 14:04:31;;;;;;;1.30;1.30;;;21.90;99.90;;;;;;5069155;28;20658;-64